createdAt,value
2022-09-24T00:00:07.430Z,7.22
2022-09-24T00:01:15.848Z,7.63
2022-09-24T00:02:25.494Z,7.47
2022-09-24T00:03:29.499Z,7.72
2022-09-24T00:04:33.343Z,8.93
2022-09-24T00:05:40.045Z,8.35
2022-09-24T00:06:43.610Z,6.63
2022-09-24T00:07:53.382Z,6.50
2022-09-24T00:08:56.970Z,5.05
2022-09-24T00:10:07.331Z,7.53
2022-09-24T00:11:12.044Z,7.25
2022-09-24T00:12:15.527Z,6.45
2022-09-24T00:13:19.030Z,8.50
2022-09-24T00:14:22.527Z,5.88
2022-09-24T00:15:31.361Z,7.70
2022-09-24T00:16:35.064Z,6.90
2022-09-24T00:17:37.632Z,7.88
2022-09-24T00:18:41.830Z,6.80
2022-09-24T00:19:52.412Z,5.95
2022-09-24T00:20:55.821Z,7.22
2022-09-24T00:21:59.270Z,8.05
2022-09-24T00:23:01.836Z,5.50
2022-09-24T00:24:07.109Z,5.93
2022-09-24T00:25:43.771Z,7.10
2022-09-24T00:26:52.334Z,6.47
2022-09-24T00:27:54.839Z,6.00
2022-09-24T00:28:58.399Z,7.40
2022-09-24T00:30:00.941Z,5.45
2022-09-24T00:31:13.606Z,6.13
2022-09-24T00:32:24.409Z,7.10
2022-09-24T00:33:28.249Z,6.43
2022-09-24T00:34:31.940Z,8.93
2022-09-24T00:35:36.331Z,8.05
2022-09-24T00:36:40.050Z,7.90
2022-09-24T00:37:49.389Z,5.80
2022-09-24T00:38:53.840Z,7.00
2022-09-24T00:39:56.955Z,6.18
2022-09-24T00:41:00.832Z,8.30
2022-09-24T00:42:03.343Z,6.53
2022-09-24T00:43:28.369Z,5.55
2022-09-24T00:44:57.381Z,5.32
2022-09-24T00:46:05.994Z,6.70
2022-09-24T00:47:12.639Z,9.10
2022-09-24T00:48:36.364Z,7.40
2022-09-24T00:49:39.481Z,6.88
2022-09-24T00:50:51.381Z,6.43
2022-09-24T00:51:54.109Z,7.03
2022-09-24T00:52:59.332Z,7.55
2022-09-24T00:54:05.075Z,7.85
2022-09-24T00:55:11.814Z,5.63
2022-09-24T00:56:22.631Z,6.38
2022-09-24T00:57:26.572Z,5.90
2022-09-24T00:58:30.231Z,7.95
2022-09-24T00:59:34.732Z,5.82
2022-09-24T01:00:39.035Z,8.02
2022-09-24T01:01:49.570Z,7.10
2022-09-24T01:02:55.179Z,7.13
2022-09-24T01:03:59.506Z,10.35
2022-09-24T01:05:02.020Z,5.70
2022-09-24T01:06:07.164Z,9.18
2022-09-24T01:07:16.373Z,9.18
2022-09-24T01:08:20.529Z,5.35
2022-09-24T01:09:23.980Z,6.93
2022-09-24T01:10:54.750Z,9.65
2022-09-24T01:12:10.373Z,7.03
2022-09-24T01:13:18.709Z,7.07
2022-09-24T01:14:32.830Z,6.35
2022-09-24T01:15:39.974Z,7.10
2022-09-24T01:16:53.418Z,8.80
2022-09-24T01:17:59.591Z,8.40
2022-09-24T01:19:10.250Z,7.28
2022-09-24T01:20:39.972Z,7.95
2022-09-24T01:21:49.247Z,8.95
2022-09-24T01:23:05.397Z,8.20
2022-09-24T01:24:26.111Z,6.38
2022-09-24T01:25:32.982Z,7.78
2022-09-24T01:26:41.010Z,7.68
2022-09-24T01:28:03.390Z,6.35
2022-09-24T01:29:21.661Z,7.05
2022-09-24T01:30:25.589Z,5.60
2022-09-24T01:31:32.323Z,7.07
2022-09-24T01:32:38.243Z,7.50
2022-09-24T01:33:48.433Z,7.47
2022-09-24T01:34:53.399Z,9.70
2022-09-24T01:35:58.369Z,6.90
2022-09-24T01:37:03.675Z,7.03
2022-09-24T01:38:10.230Z,6.20
2022-09-24T01:39:21.417Z,7.00
2022-09-24T01:40:27.099Z,7.15
2022-09-24T01:41:29.989Z,6.00
2022-09-24T01:42:34.001Z,6.70
2022-09-24T01:43:37.003Z,6.75
2022-09-24T01:44:51.561Z,6.15
2022-09-24T01:45:59.484Z,5.13
2022-09-24T01:47:03.238Z,5.80
2022-09-24T01:48:28.390Z,7.00
2022-09-24T01:49:30.960Z,4.53
2022-09-24T01:50:42.423Z,6.82
2022-09-24T01:51:48.815Z,5.38
2022-09-24T01:52:54.301Z,7.47
2022-09-24T01:53:58.510Z,5.95
2022-09-24T01:55:03.399Z,8.07
2022-09-24T01:56:15.450Z,5.20
2022-09-24T01:57:20.339Z,5.28
2022-09-24T01:58:24.713Z,7.45
2022-09-24T01:59:30.790Z,6.82
2022-09-24T02:00:34.864Z,4.20
2022-09-24T02:01:47.483Z,7.63
2022-09-24T02:02:52.569Z,6.60
2022-09-24T02:03:58.669Z,5.57
2022-09-24T02:05:04.471Z,6.50
2022-09-24T02:06:10.891Z,8.05
2022-09-24T02:07:22.424Z,7.43
2022-09-24T02:08:28.310Z,6.82
2022-09-24T02:09:41.400Z,4.43
2022-09-24T02:10:47.439Z,6.70
2022-09-24T02:11:53.207Z,8.23
2022-09-24T02:12:58.844Z,7.00
2022-09-24T02:14:04.335Z,7.72
2022-09-24T02:15:17.530Z,7.35
2022-09-24T02:16:23.026Z,7.70
2022-09-24T02:17:27.201Z,7.30
2022-09-24T02:18:32.689Z,6.35
2022-09-24T02:19:37.230Z,8.13
2022-09-24T02:20:47.372Z,7.07
2022-09-24T02:21:51.592Z,6.47
2022-09-24T02:22:56.432Z,6.75
2022-09-24T02:24:03.280Z,6.28
2022-09-24T02:25:13.397Z,5.72
2022-09-24T02:26:16.993Z,5.88
2022-09-24T02:27:26.419Z,6.53
2022-09-24T02:28:30.242Z,8.13
2022-09-24T02:29:39.401Z,7.22
2022-09-24T02:30:45.063Z,5.28
2022-09-24T02:31:50.261Z,6.18
2022-09-24T02:32:55.713Z,5.28
2022-09-24T02:34:25.435Z,6.00
2022-09-24T02:35:27.980Z,4.30
2022-09-24T02:36:31.723Z,7.43
2022-09-24T02:37:37.505Z,6.57
2022-09-24T02:38:46.430Z,5.32
2022-09-24T02:39:50.332Z,5.20
2022-09-24T02:40:53.478Z,6.53
2022-09-24T02:41:57.725Z,6.88
2022-09-24T02:43:00.232Z,5.65
2022-09-24T02:44:10.487Z,7.15
2022-09-24T02:45:19.389Z,7.57
2022-09-24T02:46:22.932Z,5.00
2022-09-24T02:47:27.151Z,6.25
2022-09-24T02:48:50.391Z,5.82
2022-09-24T02:50:00.423Z,5.72
2022-09-24T02:51:04.178Z,5.15
2022-09-24T02:52:07.687Z,5.50
2022-09-24T02:53:10.199Z,4.47
2022-09-24T02:54:13.908Z,5.20
2022-09-24T02:55:23.411Z,5.97
2022-09-24T02:56:32.403Z,4.53
2022-09-24T02:57:37.025Z,5.13
2022-09-24T02:58:39.840Z,6.28
2022-09-24T02:59:43.299Z,5.20
2022-09-24T03:00:52.422Z,6.30
2022-09-24T03:02:02.555Z,6.22
2022-09-24T03:03:06.562Z,5.50
2022-09-24T03:04:10.273Z,5.82
2022-09-24T03:05:12.812Z,5.70
2022-09-24T03:06:16.382Z,7.05
2022-09-24T03:07:28.421Z,4.53
2022-09-24T03:08:32.417Z,5.95
2022-09-24T03:09:35.853Z,6.07
2022-09-24T03:10:38.680Z,4.97
2022-09-24T03:11:49.430Z,4.90
2022-09-24T03:12:51.973Z,6.70
2022-09-24T03:13:55.647Z,6.05
2022-09-24T03:14:58.269Z,4.75
2022-09-24T03:16:01.718Z,5.72
2022-09-24T03:17:11.389Z,5.80
2022-09-24T03:18:16.482Z,5.70
2022-09-24T03:19:18.993Z,4.72
2022-09-24T03:20:22.886Z,5.25
2022-09-24T03:21:25.431Z,5.65
2022-09-24T03:22:35.474Z,4.90
2022-09-24T03:23:38.051Z,5.80
2022-09-24T03:24:41.499Z,5.97
2022-09-24T03:25:44.033Z,5.60
2022-09-24T03:26:47.476Z,6.45
2022-09-24T03:27:56.375Z,6.07
2022-09-24T03:29:06.474Z,4.95
2022-09-24T03:30:27.789Z,4.63
2022-09-24T03:31:30.320Z,4.78
2022-09-24T03:32:40.457Z,5.30
2022-09-24T03:33:46.022Z,5.20
2022-09-24T03:34:48.553Z,4.50
2022-09-24T03:35:52.030Z,5.13
2022-09-24T03:36:55.487Z,6.30
2022-09-24T03:38:04.590Z,6.07
2022-09-24T03:39:08.033Z,6.43
2022-09-24T03:40:10.687Z,5.10
2022-09-24T03:41:14.819Z,4.95
2022-09-24T03:42:17.339Z,5.30
2022-09-24T03:43:27.451Z,5.45
2022-09-24T03:44:29.975Z,4.97
2022-09-24T03:45:33.411Z,5.05
2022-09-24T03:46:36.867Z,4.97
2022-09-24T03:47:40.500Z,5.82
2022-09-24T03:48:58.430Z,5.22
2022-09-24T03:50:09.925Z,5.30
2022-09-24T03:51:14.460Z,4.13
2022-09-24T03:52:23.420Z,5.10
2022-09-24T03:53:26.870Z,6.60
2022-09-24T03:54:36.436Z,5.10
2022-09-24T03:55:43.880Z,5.68
2022-09-24T03:56:46.534Z,5.28
2022-09-24T03:57:50.009Z,5.00
2022-09-24T03:59:00.425Z,7.03
2022-09-24T04:00:03.073Z,4.75
2022-09-24T04:01:06.749Z,5.95
2022-09-24T04:02:09.850Z,5.10
2022-09-24T04:03:13.424Z,4.38
2022-09-24T04:04:23.409Z,4.88
2022-09-24T04:05:33.472Z,4.55
2022-09-24T04:06:35.955Z,4.38
2022-09-24T04:07:39.888Z,7.80
2022-09-24T04:08:42.410Z,3.92
2022-09-24T04:09:45.880Z,6.28
2022-09-24T04:10:55.466Z,5.07
2022-09-24T04:11:59.154Z,5.03
2022-09-24T04:13:01.751Z,4.70
2022-09-24T04:14:05.400Z,5.88
2022-09-24T04:15:08.280Z,4.97
2022-09-24T04:16:18.467Z,4.20
2022-09-24T04:17:27.404Z,5.95
2022-09-24T04:18:32.866Z,5.30
2022-09-24T04:19:40.150Z,5.30
2022-09-24T04:20:44.041Z,6.03
2022-09-24T04:21:53.449Z,4.68
2022-09-24T04:22:57.841Z,6.50
2022-09-24T04:24:00.380Z,5.50
2022-09-24T04:25:04.400Z,5.35
2022-09-24T04:26:06.991Z,5.28
2022-09-24T04:27:17.483Z,5.25
2022-09-24T04:28:20.932Z,5.05
2022-09-24T04:29:23.450Z,6.82
2022-09-24T04:30:27.566Z,5.25
2022-09-24T04:31:32.835Z,5.05
2022-09-24T04:32:42.423Z,6.00
2022-09-24T04:33:45.890Z,4.80
2022-09-24T04:34:49.753Z,4.13
2022-09-24T04:35:53.205Z,4.43
2022-09-24T04:36:55.708Z,5.65
2022-09-24T04:38:05.442Z,5.38
2022-09-24T04:39:07.965Z,5.13
2022-09-24T04:40:12.716Z,5.82
2022-09-24T04:41:16.619Z,4.60
2022-09-24T04:42:21.720Z,3.97
2022-09-24T04:43:30.422Z,5.25
2022-09-24T04:44:33.862Z,5.57
2022-09-24T04:45:39.160Z,7.00
2022-09-24T04:46:43.005Z,6.18
2022-09-24T04:47:45.881Z,4.22
2022-09-24T04:48:56.400Z,5.78
2022-09-24T04:50:02.749Z,4.88
2022-09-24T04:51:06.930Z,4.32
2022-09-24T04:52:09.440Z,4.43
2022-09-24T04:53:13.133Z,5.65
2022-09-24T04:54:23.424Z,5.10
2022-09-24T04:55:27.783Z,5.45
2022-09-24T04:56:30.966Z,3.80
2022-09-24T04:57:36.491Z,4.80
2022-09-24T04:58:39.021Z,4.22
2022-09-24T04:59:49.430Z,6.15
2022-09-24T05:00:59.440Z,4.57
2022-09-24T05:02:07.275Z,7.15
2022-09-24T05:03:12.997Z,15.80
2022-09-24T05:04:22.490Z,18.25
2022-09-24T05:05:28.259Z,16.90
2022-09-24T05:06:30.970Z,18.35
2022-09-24T05:07:34.420Z,14.73
2022-09-24T05:08:37.235Z,11.15
2022-09-24T05:09:47.471Z,11.13
2022-09-24T05:10:50.052Z,9.52
2022-09-24T05:11:53.560Z,6.03
2022-09-24T05:12:56.091Z,5.32
2022-09-24T05:13:59.539Z,6.20
2022-09-24T05:15:08.502Z,4.60
2022-09-24T05:16:12.351Z,4.70
2022-09-24T05:17:15.446Z,5.80
2022-09-24T05:18:19.021Z,4.68
2022-09-24T05:19:22.361Z,4.72
2022-09-24T05:20:34.587Z,6.03
2022-09-24T05:21:37.147Z,5.05
2022-09-24T05:22:42.631Z,3.40
2022-09-24T05:23:45.099Z,4.03
2022-09-24T05:24:48.462Z,4.40
2022-09-24T05:26:16.410Z,4.40
2022-09-24T05:27:21.907Z,4.07
2022-09-24T05:28:25.781Z,3.65
2022-09-24T05:29:28.518Z,4.57
2022-09-24T05:30:31.979Z,4.07
2022-09-24T05:31:41.489Z,4.85
2022-09-24T05:32:45.485Z,4.22
2022-09-24T05:33:48.254Z,4.28
2022-09-24T05:34:52.433Z,4.50
2022-09-24T05:35:57.764Z,5.07
2022-09-24T05:37:08.505Z,4.72
2022-09-24T05:38:10.981Z,5.97
2022-09-24T05:39:14.732Z,4.65
2022-09-24T05:40:38.486Z,6.22
2022-09-24T05:41:43.560Z,6.57
2022-09-24T05:42:53.501Z,3.88
2022-09-24T05:43:59.672Z,4.10
2022-09-24T05:45:02.190Z,4.78
2022-09-24T05:46:06.547Z,4.22
2022-09-24T05:47:09.654Z,3.83
2022-09-24T05:48:20.412Z,4.53
2022-09-24T05:49:37.683Z,4.53
2022-09-24T05:50:40.199Z,4.03
2022-09-24T05:51:45.368Z,4.65
2022-09-24T05:52:47.883Z,4.22
2022-09-24T05:53:58.425Z,6.10
2022-09-24T05:55:00.967Z,3.72
2022-09-24T05:56:04.431Z,5.30
2022-09-24T05:57:06.953Z,5.78
2022-09-24T05:58:11.832Z,6.00
2022-09-24T05:59:21.500Z,4.63
2022-09-24T06:00:24.952Z,3.65
2022-09-24T06:01:30.041Z,3.38
2022-09-24T06:02:33.624Z,4.38
2022-09-24T06:03:36.170Z,3.47
2022-09-24T06:04:46.432Z,4.35
2022-09-24T06:05:49.713Z,4.22
2022-09-24T06:06:54.574Z,3.75
2022-09-24T06:07:57.096Z,4.47
2022-09-24T06:09:08.676Z,4.80
2022-09-24T06:10:11.410Z,4.60
2022-09-24T06:11:21.461Z,5.05
2022-09-24T06:12:24.363Z,3.65
2022-09-24T06:13:27.870Z,4.25
2022-09-24T06:14:30.399Z,2.78
2022-09-24T06:15:41.530Z,3.58
2022-09-24T06:16:45.071Z,3.78
2022-09-24T06:17:47.687Z,4.38
2022-09-24T06:18:51.152Z,4.32
2022-09-24T06:19:53.731Z,3.75
2022-09-24T06:21:03.505Z,4.53
2022-09-24T06:22:07.402Z,3.55
2022-09-24T06:23:10.863Z,3.53
2022-09-24T06:24:14.366Z,4.25
2022-09-24T06:25:17.112Z,1.88
2022-09-24T06:26:27.450Z,3.53
2022-09-24T06:27:30.077Z,4.88
2022-09-24T06:28:33.570Z,2.65
2022-09-24T06:29:36.062Z,2.90
2022-09-24T06:30:41.315Z,3.90
2022-09-24T06:31:51.443Z,2.22
2022-09-24T06:32:55.111Z,2.97
2022-09-24T06:33:58.554Z,3.78
2022-09-24T06:35:01.110Z,4.55
2022-09-24T06:36:06.339Z,2.63
2022-09-24T06:37:16.473Z,3.05
2022-09-24T06:38:20.445Z,3.28
2022-09-24T06:39:24.451Z,3.10
2022-09-24T06:40:29.414Z,4.20
2022-09-24T06:41:42.493Z,3.00
2022-09-24T06:42:45.011Z,4.28
2022-09-24T06:43:48.592Z,3.47
2022-09-24T06:44:51.641Z,2.75
2022-09-24T06:45:57.021Z,2.80
2022-09-24T06:47:06.513Z,3.97
2022-09-24T06:48:11.690Z,3.75
2022-09-24T06:49:21.860Z,3.20
2022-09-24T06:50:25.993Z,3.75
2022-09-24T06:51:29.431Z,3.90
2022-09-24T06:52:39.471Z,3.53
2022-09-24T06:53:49.621Z,2.90
2022-09-24T06:54:56.092Z,2.75
2022-09-24T06:56:00.766Z,2.95
2022-09-24T06:57:10.535Z,3.05
2022-09-24T06:58:15.062Z,2.22
2022-09-24T06:59:18.532Z,2.90
2022-09-24T07:00:21.014Z,3.05
2022-09-24T07:01:24.772Z,3.15
2022-09-24T07:02:35.650Z,3.45
2022-09-24T07:03:39.558Z,2.20
2022-09-24T07:04:42.087Z,3.20
2022-09-24T07:05:45.735Z,2.40
2022-09-24T07:07:10.119Z,2.72
2022-09-24T07:08:21.486Z,2.72
2022-09-24T07:09:24.920Z,2.45
2022-09-24T07:10:28.532Z,2.10
2022-09-24T07:11:32.092Z,1.90
2022-09-24T07:12:35.547Z,1.70
2022-09-24T07:13:45.455Z,2.60
2022-09-24T07:14:48.190Z,2.83
2022-09-24T07:15:52.478Z,2.63
2022-09-24T07:16:56.094Z,3.30
2022-09-24T07:17:58.656Z,3.38
2022-09-24T07:19:08.505Z,2.17
2022-09-24T07:20:18.524Z,1.52
2022-09-24T07:21:22.007Z,2.33
2022-09-24T07:22:24.540Z,3.92
2022-09-24T07:23:29.382Z,3.22
2022-09-24T07:24:31.983Z,2.63
2022-09-24T07:25:42.522Z,2.13
2022-09-24T07:26:45.050Z,2.13
2022-09-24T07:27:48.520Z,2.63
2022-09-24T07:28:51.090Z,3.05
2022-09-24T07:29:55.044Z,3.35
2022-09-24T07:31:05.533Z,2.30
2022-09-24T07:32:09.219Z,3.13
2022-09-24T07:33:11.802Z,2.35
2022-09-24T07:34:15.349Z,2.65
2022-09-24T07:35:19.070Z,2.78
2022-09-24T07:36:29.463Z,2.13
2022-09-24T07:37:32.645Z,1.95
2022-09-24T07:38:37.723Z,2.80
2022-09-24T07:39:40.260Z,3.28
2022-09-24T07:40:51.567Z,2.67
2022-09-24T07:42:01.474Z,2.73
2022-09-24T07:43:05.034Z,2.57
2022-09-24T07:44:08.324Z,2.83
2022-09-24T07:45:12.251Z,1.77
2022-09-24T07:46:14.913Z,2.80
2022-09-24T07:47:24.703Z,2.50
2022-09-24T07:48:34.671Z,1.37
2022-09-24T07:49:51.460Z,1.73
2022-09-24T07:50:55.271Z,1.97
2022-09-24T07:51:57.863Z,2.13
2022-09-24T07:53:08.496Z,2.40
2022-09-24T07:54:17.043Z,2.20
2022-09-24T07:55:21.507Z,2.07
2022-09-24T07:56:24.863Z,2.40
2022-09-24T07:57:34.481Z,1.83
2022-09-24T07:58:37.901Z,1.97
2022-09-24T07:59:40.824Z,2.50
2022-09-24T08:00:50.514Z,1.67
2022-09-24T08:01:53.056Z,2.03
2022-09-24T08:02:56.672Z,1.67
2022-09-24T08:03:59.560Z,2.13
2022-09-24T08:05:03.122Z,1.73
2022-09-24T08:06:12.485Z,1.77
2022-09-24T08:07:15.925Z,1.70
2022-09-24T08:08:20.620Z,2.00
2022-09-24T08:09:25.391Z,2.57
2022-09-24T08:10:29.116Z,2.03
2022-09-24T08:11:40.463Z,2.47
2022-09-24T08:12:43.879Z,2.17
2022-09-24T08:13:53.489Z,2.07
2022-09-24T08:15:03.676Z,2.60
2022-09-24T08:16:09.536Z,1.63
2022-09-24T08:17:12.062Z,1.00
2022-09-24T08:18:22.492Z,1.67
2022-09-24T08:19:25.012Z,2.10
2022-09-24T08:20:28.469Z,2.37
2022-09-24T08:21:30.977Z,2.17
2022-09-24T08:22:36.001Z,1.80
2022-09-24T08:23:46.456Z,1.43
2022-09-24T08:24:51.607Z,2.00
2022-09-24T08:25:55.079Z,1.60
2022-09-24T08:26:59.954Z,1.43
2022-09-24T08:28:02.799Z,0.93
2022-09-24T08:29:12.487Z,1.27
2022-09-24T08:30:15.162Z,1.30
2022-09-24T08:31:19.210Z,0.97
2022-09-24T08:32:21.782Z,1.00
2022-09-24T08:33:25.243Z,1.17
2022-09-24T08:34:34.492Z,1.97
2022-09-24T08:35:40.120Z,1.40
2022-09-24T08:36:43.469Z,1.33
2022-09-24T08:37:46.956Z,0.87
2022-09-24T08:38:55.507Z,0.80
2022-09-24T08:40:07.572Z,0.87
2022-09-24T08:41:18.463Z,0.70
2022-09-24T08:42:30.472Z,1.73
2022-09-24T08:43:44.520Z,1.43
2022-09-24T08:45:07.374Z,1.00
2022-09-24T08:46:33.248Z,0.87
2022-09-24T08:47:38.606Z,1.33
2022-09-24T08:48:55.522Z,1.13
2022-09-24T08:50:10.547Z,0.90
2022-09-24T08:51:14.513Z,0.70
2022-09-24T08:52:35.758Z,1.47
2022-09-24T08:53:51.502Z,0.80
2022-09-24T08:55:11.772Z,0.37
2022-09-24T08:56:16.143Z,0.50
2022-09-24T08:57:18.922Z,0.70
2022-09-24T08:58:30.361Z,0.90
2022-09-24T08:59:33.739Z,0.37
2022-09-24T09:00:48.512Z,0.80
2022-09-24T09:01:55.517Z,1.03
2022-09-24T09:03:02.490Z,0.60
2022-09-24T09:04:12.443Z,0.30
2022-09-24T09:05:19.561Z,0.40
2022-09-24T09:06:41.501Z,0.43
2022-09-24T09:07:46.337Z,2.20
2022-09-24T09:09:06.863Z,0.70
2022-09-24T09:10:18.461Z,0.57
2022-09-24T09:11:30.509Z,0.53
2022-09-24T09:12:36.594Z,0.50
2022-09-24T09:13:42.049Z,1.67
2022-09-24T09:14:46.434Z,0.57
2022-09-24T09:15:51.755Z,0.67
2022-09-24T09:17:03.479Z,0.63
2022-09-24T09:18:18.990Z,1.10
2022-09-24T09:19:23.960Z,0.53
2022-09-24T09:20:31.188Z,0.50
2022-09-24T09:21:45.506Z,0.50
2022-09-24T09:22:50.592Z,0.40
2022-09-24T09:23:55.250Z,0.80
2022-09-24T09:25:04.238Z,0.30
2022-09-24T09:26:11.152Z,0.47
2022-09-24T09:27:22.610Z,0.57
2022-09-24T09:28:27.980Z,0.30
2022-09-24T09:29:37.506Z,0.80
2022-09-24T09:30:43.726Z,0.20
2022-09-24T09:31:53.880Z,0.30
2022-09-24T09:33:07.003Z,0.50
2022-09-24T09:34:30.481Z,0.70
2022-09-24T09:35:38.270Z,0.20
2022-09-24T09:36:45.255Z,0.20
2022-09-24T09:37:58.482Z,0.57
2022-09-24T09:39:05.958Z,0.30
2022-09-24T09:40:20.630Z,0.43
2022-09-24T09:41:30.603Z,0.17
2022-09-24T09:42:36.356Z,0.23
2022-09-24T09:43:39.070Z,0.50
2022-09-24T09:44:43.607Z,0.23
2022-09-24T09:45:59.832Z,0.37
2022-09-24T09:47:06.916Z,0.30
2022-09-24T09:48:12.925Z,0.40
2022-09-24T09:49:23.015Z,0.73
2022-09-24T09:50:29.276Z,0.30
2022-09-24T09:51:43.520Z,0.23
2022-09-24T09:52:46.099Z,0.40
2022-09-24T09:53:59.501Z,0.40
2022-09-24T09:55:06.051Z,0.50
2022-09-24T09:56:09.990Z,0.47
2022-09-24T09:57:24.527Z,0.33
2022-09-24T09:58:28.600Z,0.43
2022-09-24T09:59:34.218Z,0.20
2022-09-24T10:00:38.944Z,0.20
2022-09-24T10:01:49.587Z,0.40
2022-09-24T10:03:00.702Z,0.40
2022-09-24T10:04:05.026Z,0.23
2022-09-24T10:05:08.070Z,0.57
2022-09-24T10:06:13.119Z,0.40
2022-09-24T10:07:16.480Z,0.57
2022-09-24T10:08:29.532Z,0.27
2022-09-24T10:09:32.724Z,0.47
2022-09-24T10:10:36.239Z,0.43
2022-09-24T10:11:38.812Z,0.23
2022-09-24T10:12:43.639Z,0.43
2022-09-24T10:13:52.544Z,0.80
2022-09-24T10:14:59.825Z,0.47
2022-09-24T10:16:04.241Z,0.53
2022-09-24T10:17:07.900Z,0.27
2022-09-24T10:18:14.721Z,0.63
2022-09-24T10:19:27.565Z,0.57
2022-09-24T10:20:32.743Z,0.70
2022-09-24T10:21:37.133Z,0.27
2022-09-24T10:22:40.739Z,0.43
2022-09-24T10:23:46.346Z,0.80
2022-09-24T10:24:55.534Z,0.80
2022-09-24T10:26:00.993Z,0.40
2022-09-24T10:27:11.192Z,0.47
2022-09-24T10:28:37.493Z,0.30
2022-09-24T10:30:05.564Z,0.90
2022-09-24T10:31:13.308Z,0.30
2022-09-24T10:32:17.088Z,0.60
2022-09-24T10:33:20.774Z,0.53
2022-09-24T10:34:26.710Z,0.50
2022-09-24T10:35:37.569Z,0.47
2022-09-24T10:36:50.608Z,0.77
2022-09-24T10:37:54.869Z,0.27
2022-09-24T10:39:04.302Z,1.17
2022-09-24T10:40:15.461Z,0.63
2022-09-24T10:41:32.555Z,0.50
2022-09-24T10:42:35.108Z,0.80
2022-09-24T10:43:39.939Z,0.70
2022-09-24T10:44:43.454Z,0.57
2022-09-24T10:46:08.721Z,0.80
2022-09-24T10:47:20.077Z,0.57
2022-09-24T10:48:27.108Z,0.87
2022-09-24T10:49:41.820Z,0.70
2022-09-24T10:50:48.556Z,0.47
2022-09-24T10:52:02.569Z,0.40
2022-09-24T10:53:16.540Z,0.23
2022-09-24T10:54:34.438Z,0.47
2022-09-24T10:55:52.472Z,0.73
2022-09-24T10:56:56.385Z,0.33
2022-09-24T10:58:04.157Z,0.23
2022-09-24T10:59:27.580Z,0.60
2022-09-24T11:00:33.323Z,0.50
2022-09-24T11:01:42.319Z,0.50
2022-09-24T11:03:10.694Z,0.57
2022-09-24T11:04:26.541Z,0.47
2022-09-24T11:05:32.719Z,0.90
2022-09-24T11:06:45.808Z,0.70
2022-09-24T11:07:57.020Z,0.63
2022-09-24T11:09:15.604Z,0.53
2022-09-24T11:10:24.167Z,0.43
2022-09-24T11:11:32.662Z,0.63
2022-09-24T11:12:40.785Z,0.47
2022-09-24T11:13:51.568Z,0.57
2022-09-24T11:15:11.589Z,0.40
2022-09-24T11:16:18.240Z,0.30
2022-09-24T11:17:36.666Z,0.97
2022-09-24T11:18:45.992Z,0.30
2022-09-24T11:19:58.392Z,0.57
2022-09-24T11:21:13.587Z,0.47
2022-09-24T11:22:18.134Z,0.30
2022-09-24T11:23:29.239Z,0.50
2022-09-24T11:24:46.609Z,0.87
2022-09-24T11:25:59.561Z,0.60
2022-09-24T11:27:07.966Z,0.73
2022-09-24T11:28:21.366Z,0.30
2022-09-24T11:29:36.966Z,0.70
2022-09-24T11:30:47.912Z,0.37
2022-09-24T11:32:02.570Z,0.40
2022-09-24T11:33:23.220Z,0.40
2022-09-24T11:34:37.849Z,0.40
2022-09-24T11:35:56.685Z,0.50
2022-09-24T11:37:13.567Z,0.67
2022-09-24T11:38:26.551Z,0.50
2022-09-24T11:39:35.591Z,0.50
2022-09-24T11:40:59.673Z,0.63
2022-09-24T11:42:08.321Z,0.50
2022-09-24T11:43:26.612Z,0.47
2022-09-24T11:44:52.289Z,0.60
2022-09-24T11:46:13.401Z,1.00
2022-09-24T11:47:26.559Z,0.47
2022-09-24T11:48:48.569Z,0.63
2022-09-24T11:50:15.584Z,0.60
2022-09-24T11:51:36.617Z,0.60
2022-09-24T11:52:46.066Z,0.73
2022-09-24T11:53:53.895Z,1.43
2022-09-24T11:55:01.109Z,0.70
2022-09-24T11:56:13.807Z,0.60
2022-09-24T11:57:20.790Z,1.00
2022-09-24T11:58:26.268Z,1.13
2022-09-24T11:59:35.026Z,0.50
2022-09-24T12:00:47.632Z,0.60
2022-09-24T12:01:56.204Z,0.43
2022-09-24T12:03:04.272Z,0.57
2022-09-24T12:04:11.297Z,0.53
2022-09-24T12:05:16.103Z,0.53
2022-09-24T12:06:28.549Z,1.30
2022-09-24T12:07:42.592Z,0.50
2022-09-24T12:08:47.671Z,1.13
2022-09-24T12:09:53.525Z,0.70
2022-09-24T12:10:58.956Z,1.07
2022-09-24T12:12:12.583Z,0.67
2022-09-24T12:13:19.712Z,0.30
2022-09-24T12:14:24.032Z,0.67
2022-09-24T12:15:31.437Z,0.77
2022-09-24T12:16:37.806Z,1.03
2022-09-24T12:17:51.609Z,0.90
2022-09-24T12:18:57.651Z,0.50
2022-09-24T12:20:02.413Z,0.80
2022-09-24T12:21:09.187Z,0.93
2022-09-24T12:22:12.070Z,0.53
2022-09-24T12:23:23.658Z,0.80
2022-09-24T12:24:30.026Z,0.60
2022-09-24T12:25:35.176Z,0.60
2022-09-24T12:26:40.145Z,1.00
2022-09-24T12:27:43.235Z,0.50
2022-09-24T12:29:16.586Z,0.40
2022-09-24T12:30:48.463Z,0.73
2022-09-24T12:32:14.819Z,0.63
2022-09-24T12:33:23.747Z,1.50
2022-09-24T12:34:34.610Z,0.57
2022-09-24T12:35:49.571Z,0.20
2022-09-24T12:36:57.569Z,0.80
2022-09-24T12:38:04.356Z,0.70
2022-09-24T12:39:09.202Z,0.77
2022-09-24T12:40:25.755Z,0.77
2022-09-24T12:41:30.502Z,1.10
2022-09-24T12:42:36.667Z,0.83
2022-09-24T12:43:41.844Z,0.53
2022-09-24T12:44:47.181Z,0.50
2022-09-24T12:46:00.634Z,0.50
2022-09-24T12:47:04.476Z,0.70
2022-09-24T12:48:07.171Z,0.57
2022-09-24T12:49:27.774Z,0.30
2022-09-24T12:50:45.571Z,0.50
2022-09-24T12:51:49.201Z,0.80
2022-09-24T12:52:51.956Z,1.13
2022-09-24T12:54:00.104Z,1.10
2022-09-24T12:55:10.582Z,0.60
2022-09-24T12:56:14.091Z,0.70
2022-09-24T12:57:22.727Z,0.87
2022-09-24T12:58:37.599Z,1.33
2022-09-24T12:59:54.314Z,1.30
2022-09-24T13:01:06.911Z,1.33
2022-09-24T13:02:16.947Z,0.73
2022-09-24T13:03:34.458Z,0.60
2022-09-24T13:04:45.834Z,1.17
2022-09-24T13:05:49.241Z,0.70
2022-09-24T13:06:54.097Z,1.50
2022-09-24T13:07:58.374Z,1.00
2022-09-24T13:09:02.165Z,0.67
2022-09-24T13:10:18.591Z,0.63
2022-09-24T13:11:30.612Z,0.53
2022-09-24T13:12:40.604Z,0.53
2022-09-24T13:13:45.193Z,1.00
2022-09-24T13:14:59.600Z,1.00
2022-09-24T13:16:04.957Z,0.63
2022-09-24T13:17:08.034Z,1.07
2022-09-24T13:18:30.614Z,0.57
2022-09-24T13:19:36.139Z,1.17
2022-09-24T13:20:47.595Z,0.73
2022-09-24T13:21:54.612Z,0.90
2022-09-24T13:22:59.678Z,1.20
2022-09-24T13:24:18.577Z,1.27
2022-09-24T13:25:24.122Z,0.93
2022-09-24T13:26:29.221Z,1.00
2022-09-24T13:27:37.830Z,0.50
2022-09-24T13:29:01.654Z,1.17
2022-09-24T13:30:07.113Z,1.03
2022-09-24T13:31:12.753Z,1.20
2022-09-24T13:32:17.711Z,1.13
2022-09-24T13:33:25.036Z,0.97
2022-09-24T13:34:35.653Z,0.80
2022-09-24T13:35:45.490Z,1.50
2022-09-24T13:36:50.922Z,1.10
2022-09-24T13:37:56.469Z,1.03
2022-09-24T13:39:03.025Z,0.63
2022-09-24T13:40:15.672Z,0.93
2022-09-24T13:41:23.934Z,0.83
2022-09-24T13:42:33.979Z,0.70
2022-09-24T13:43:41.721Z,0.63
2022-09-24T13:44:46.123Z,0.83
2022-09-24T13:45:55.691Z,1.00
2022-09-24T13:47:01.923Z,0.83
2022-09-24T13:48:05.177Z,0.60
2022-09-24T13:49:19.836Z,0.63
2022-09-24T13:50:32.493Z,0.50
2022-09-24T13:51:45.628Z,0.80
2022-09-24T13:52:59.650Z,1.20
2022-09-24T13:54:04.918Z,1.10
2022-09-24T13:55:12.517Z,0.63
2022-09-24T13:56:15.786Z,0.83
2022-09-24T13:57:22.829Z,0.93
2022-09-24T13:58:36.619Z,1.00
2022-09-24T13:59:39.312Z,1.90
2022-09-24T14:00:44.215Z,1.20
2022-09-24T14:01:53.665Z,1.60
2022-09-24T14:02:59.483Z,2.50
2022-09-24T14:04:10.623Z,4.93
2022-09-24T14:05:17.884Z,3.63
2022-09-24T14:06:29.625Z,2.70
2022-09-24T14:07:33.498Z,3.60
2022-09-24T14:08:38.616Z,2.20
2022-09-24T14:09:48.651Z,0.87
2022-09-24T14:10:52.509Z,1.03
2022-09-24T14:11:56.315Z,1.27
2022-09-24T14:13:17.605Z,1.03
2022-09-24T14:14:22.230Z,1.67
2022-09-24T14:15:32.775Z,1.33
2022-09-24T14:16:36.574Z,1.53
2022-09-24T14:17:39.120Z,1.80
2022-09-24T14:18:42.622Z,2.87
2022-09-24T14:19:45.217Z,1.83
2022-09-24T14:20:58.635Z,1.07
2022-09-24T14:22:09.610Z,1.20
2022-09-24T14:23:18.620Z,0.70
2022-09-24T14:24:24.416Z,0.90
2022-09-24T14:25:30.951Z,1.30
2022-09-24T14:26:43.638Z,1.43
2022-09-24T14:27:47.699Z,1.23
2022-09-24T14:28:51.268Z,1.30
2022-09-24T14:29:56.425Z,1.90
2022-09-24T14:31:00.334Z,1.47
2022-09-24T14:32:11.666Z,2.07
2022-09-24T14:33:17.196Z,1.80
2022-09-24T14:34:25.553Z,1.60
2022-09-24T14:35:31.244Z,1.10
2022-09-24T14:36:36.006Z,1.03
2022-09-24T14:37:46.654Z,1.50
2022-09-24T14:38:53.914Z,1.60
2022-09-24T14:40:04.379Z,1.47
2022-09-24T14:41:14.817Z,1.67
2022-09-24T14:42:24.184Z,1.53
2022-09-24T14:43:37.746Z,1.10
2022-09-24T14:44:44.500Z,2.77
2022-09-24T14:45:47.548Z,3.77
2022-09-24T14:46:52.401Z,1.77
2022-09-24T14:48:05.486Z,1.07
2022-09-24T14:49:25.615Z,2.20
2022-09-24T14:50:39.926Z,2.37
2022-09-24T14:51:52.754Z,6.60
2022-09-24T14:52:57.994Z,5.90
2022-09-24T14:54:10.621Z,3.33
2022-09-24T14:55:18.272Z,2.37
2022-09-24T14:56:22.513Z,1.60
2022-09-24T14:57:26.978Z,1.47
2022-09-24T14:58:46.629Z,1.77
2022-09-24T14:59:49.508Z,3.03
2022-09-24T15:01:02.635Z,3.20
2022-09-24T15:02:17.359Z,3.10